createdAt,value
2017-08-03T00:00:31.908Z,18.36
2017-08-03T00:01:12.483Z,18.35
2017-08-03T00:01:53.006Z,18.35
2017-08-03T00:02:33.553Z,18.31
2017-08-03T00:03:14.048Z,18.31
2017-08-03T00:03:54.578Z,18.29
2017-08-03T00:04:35.054Z,18.31
2017-08-03T00:05:15.471Z,18.25
2017-08-03T00:05:56.051Z,18.31
2017-08-03T00:06:36.505Z,18.36
2017-08-03T00:07:17.129Z,18.31
2017-08-03T00:07:57.590Z,18.34
2017-08-03T00:08:38.121Z,18.38
2017-08-03T00:09:18.738Z,18.36
2017-08-03T00:09:59.225Z,18.49
2017-08-03T00:10:39.737Z,18.47
2017-08-03T00:11:20.498Z,18.46
2017-08-03T00:12:01.002Z,18.54
2017-08-03T00:12:41.480Z,18.5
2017-08-03T00:13:22.132Z,18.54
2017-08-03T00:14:03.259Z,18.59
2017-08-03T00:14:43.731Z,18.51
2017-08-03T00:15:24.305Z,18.47
2017-08-03T00:16:04.723Z,18.53
2017-08-03T00:16:45.278Z,18.53
2017-08-03T00:17:25.714Z,18.53
2017-08-03T00:18:06.257Z,18.49
2017-08-03T00:18:46.839Z,18.53
2017-08-03T00:19:27.429Z,18.54
2017-08-03T00:20:07.906Z,18.5
2017-08-03T00:20:48.477Z,18.53
2017-08-03T00:21:29.029Z,18.51
2017-08-03T00:22:09.389Z,18.66
2017-08-03T00:22:49.911Z,18.65
2017-08-03T00:23:30.361Z,18.59
2017-08-03T00:24:10.936Z,18.72
2017-08-03T00:24:51.454Z,18.76
2017-08-03T00:25:31.960Z,18.78
2017-08-03T00:26:12.538Z,18.69
2017-08-03T00:26:53.029Z,18.71
2017-08-03T00:27:33.564Z,18.72
2017-08-03T00:28:14.103Z,18.84
2017-08-03T00:28:54.634Z,18.83
2017-08-03T00:29:35.255Z,18.84
2017-08-03T00:30:15.699Z,18.78
2017-08-03T00:30:56.196Z,18.86
2017-08-03T00:31:36.841Z,18.78
2017-08-03T00:32:17.312Z,18.86
2017-08-03T00:32:57.875Z,18.84
2017-08-03T00:33:38.455Z,18.91
2017-08-03T00:34:19.188Z,18.86
2017-08-03T00:34:59.688Z,18.87
2017-08-03T00:35:40.265Z,18.84
2017-08-03T00:36:20.835Z,18.86
2017-08-03T00:37:01.351Z,18.86
2017-08-03T00:37:41.822Z,18.93
2017-08-03T00:38:22.422Z,18.83
2017-08-03T00:39:02.804Z,18.91
2017-08-03T00:39:43.342Z,18.87
2017-08-03T00:40:23.900Z,18.87
2017-08-03T00:41:04.336Z,18.86
2017-08-03T00:41:44.852Z,18.84
2017-08-03T00:42:25.385Z,18.93
2017-08-03T00:43:05.891Z,18.84
2017-08-03T00:43:46.356Z,18.89
2017-08-03T00:44:26.937Z,18.87
2017-08-03T00:45:07.455Z,18.9
2017-08-03T00:45:48.024Z,18.84
2017-08-03T00:46:28.359Z,18.9
2017-08-03T00:47:09.757Z,18.91
2017-08-03T00:47:50.284Z,18.87
2017-08-03T00:48:30.909Z,18.84
2017-08-03T00:49:11.325Z,18.86
2017-08-03T00:49:51.857Z,18.89
2017-08-03T00:50:32.363Z,18.78
2017-08-03T00:51:12.955Z,18.87
2017-08-03T00:51:54.142Z,18.86
2017-08-03T00:52:34.593Z,18.86
2017-08-03T00:53:15.317Z,18.83
2017-08-03T00:53:55.865Z,18.82
2017-08-03T00:54:36.347Z,18.91
2017-08-03T00:55:16.850Z,18.82
2017-08-03T00:55:57.344Z,18.79
2017-08-03T00:56:37.876Z,18.82
2017-08-03T00:57:18.476Z,18.84
2017-08-03T00:57:58.850Z,18.83
2017-08-03T00:58:39.506Z,18.86
2017-08-03T00:59:20.047Z,18.89
2017-08-03T01:00:00.504Z,18.91
2017-08-03T01:00:40.919Z,18.9
2017-08-03T01:01:21.538Z,18.9
2017-08-03T01:02:02.051Z,18.91
2017-08-03T01:02:42.457Z,18.93
2017-08-03T01:03:23.001Z,19.05
2017-08-03T01:04:03.628Z,19.05
2017-08-03T01:04:44.147Z,19.07
2017-08-03T01:05:24.756Z,18.94
2017-08-03T01:06:05.221Z,18.96
2017-08-03T01:06:45.902Z,18.97
2017-08-03T01:07:26.268Z,19.02
2017-08-03T01:08:06.890Z,19.06
2017-08-03T01:08:47.336Z,19.01
2017-08-03T01:09:27.885Z,18.96
2017-08-03T01:10:08.450Z,18.93
2017-08-03T01:10:48.939Z,18.93
2017-08-03T01:11:29.400Z,18.94
2017-08-03T01:12:09.997Z,18.86
2017-08-03T01:12:50.449Z,18.87
2017-08-03T01:13:31.029Z,18.93
2017-08-03T01:14:11.542Z,18.87
2017-08-03T01:14:52.145Z,18.9
2017-08-03T01:15:32.583Z,18.93
2017-08-03T01:16:13.110Z,18.9
2017-08-03T01:16:53.580Z,18.9
2017-08-03T01:17:34.109Z,18.9
2017-08-03T01:18:14.598Z,18.91
2017-08-03T01:18:55.181Z,18.84
2017-08-03T01:19:36.782Z,18.84
2017-08-03T01:20:17.272Z,18.83
2017-08-03T01:20:57.785Z,18.83
2017-08-03T01:21:38.360Z,18.87
2017-08-03T01:22:18.884Z,18.91
2017-08-03T01:22:59.241Z,18.84
2017-08-03T01:23:39.777Z,18.83
2017-08-03T01:24:20.254Z,18.86
2017-08-03T01:25:00.849Z,18.84
2017-08-03T01:25:41.329Z,18.84
2017-08-03T01:26:21.796Z,18.87
2017-08-03T01:27:02.204Z,18.82
2017-08-03T01:27:42.790Z,18.74
2017-08-03T01:28:23.201Z,18.71
2017-08-03T01:29:03.804Z,18.69
2017-08-03T01:29:44.919Z,18.72
2017-08-03T01:30:25.472Z,18.68
2017-08-03T01:31:06.140Z,18.74
2017-08-03T01:31:46.718Z,18.72
2017-08-03T01:32:27.266Z,18.71
2017-08-03T01:33:07.793Z,18.69
2017-08-03T01:33:48.248Z,18.68
2017-08-03T01:34:28.688Z,18.68
2017-08-03T01:35:09.238Z,18.71
2017-08-03T01:35:49.826Z,18.66
2017-08-03T01:36:30.274Z,18.79
2017-08-03T01:37:10.744Z,18.89
2017-08-03T01:37:51.254Z,18.82
2017-08-03T01:38:31.792Z,18.83
2017-08-03T01:39:12.392Z,18.83
2017-08-03T01:39:52.989Z,18.83
2017-08-03T01:40:33.475Z,18.76
2017-08-03T01:41:14.027Z,18.83
2017-08-03T01:41:54.644Z,18.82
2017-08-03T01:42:35.171Z,18.82
2017-08-03T01:43:15.749Z,18.79
2017-08-03T01:43:56.422Z,18.75
2017-08-03T01:44:36.865Z,18.68
2017-08-03T01:45:17.323Z,18.74
2017-08-03T01:45:57.801Z,18.72
2017-08-03T01:46:38.267Z,18.71
2017-08-03T01:47:18.825Z,18.76
2017-08-03T01:47:59.345Z,18.69
2017-08-03T01:48:39.882Z,18.65
2017-08-03T01:49:20.291Z,18.62
2017-08-03T01:50:00.788Z,18.64
2017-08-03T01:50:41.297Z,18.57
2017-08-03T01:51:21.882Z,18.62
2017-08-03T01:52:02.439Z,18.54
2017-08-03T01:52:43.036Z,18.6
2017-08-03T01:53:23.466Z,18.65
2017-08-03T01:54:04.007Z,18.65
2017-08-03T01:54:44.379Z,18.65
2017-08-03T01:55:24.860Z,18.62
2017-08-03T01:56:05.461Z,18.71
2017-08-03T01:56:46.000Z,18.71
2017-08-03T01:57:26.517Z,18.74
2017-08-03T01:58:07.164Z,18.72
2017-08-03T01:58:47.640Z,18.72
2017-08-03T01:59:28.173Z,18.71
2017-08-03T02:00:08.689Z,18.75
2017-08-03T02:00:49.167Z,18.74
2017-08-03T02:01:29.643Z,18.78
2017-08-03T02:02:10.242Z,18.72
2017-08-03T02:02:50.809Z,18.75
2017-08-03T02:03:31.490Z,18.69
2017-08-03T02:04:12.064Z,18.82
2017-08-03T02:04:52.625Z,18.69
2017-08-03T02:05:33.099Z,18.89
2017-08-03T02:06:13.626Z,18.79
2017-08-03T02:06:54.118Z,18.83
2017-08-03T02:07:34.574Z,18.79
2017-08-03T02:08:15.156Z,18.84
2017-08-03T02:08:55.707Z,18.79
2017-08-03T02:09:36.262Z,18.87
2017-08-03T02:10:16.760Z,18.87
2017-08-03T02:10:57.215Z,18.84
2017-08-03T02:11:37.744Z,18.83
2017-08-03T02:12:18.251Z,18.86
2017-08-03T02:12:59.500Z,18.89
2017-08-03T02:13:39.933Z,18.86
2017-08-03T02:14:20.516Z,18.84
2017-08-03T02:15:01.088Z,18.82
2017-08-03T02:15:41.678Z,18.83
2017-08-03T02:16:22.162Z,18.94
2017-08-03T02:17:02.728Z,18.93
2017-08-03T02:17:43.220Z,19.05
2017-08-03T02:18:23.892Z,19.01
2017-08-03T02:19:04.381Z,19.1
2017-08-03T02:19:44.864Z,19.12
2017-08-03T02:20:25.398Z,19.12
2017-08-03T02:21:05.951Z,19.06
2017-08-03T02:21:46.408Z,19.02
2017-08-03T02:22:26.960Z,18.99
2017-08-03T02:23:07.742Z,19.01
2017-08-03T02:23:48.401Z,18.93
2017-08-03T02:24:28.846Z,18.94
2017-08-03T02:25:09.433Z,18.91
2017-08-03T02:25:50.019Z,18.96
2017-08-03T02:26:30.430Z,18.94
2017-08-03T02:27:11.506Z,18.87
2017-08-03T02:27:52.044Z,18.87
2017-08-03T02:28:32.552Z,18.91
2017-08-03T02:29:12.978Z,18.9
2017-08-03T02:29:53.604Z,18.9
2017-08-03T02:30:34.214Z,18.86
2017-08-03T02:31:14.740Z,18.9
2017-08-03T02:31:55.238Z,18.9
2017-08-03T02:32:35.729Z,18.91
2017-08-03T02:33:16.423Z,18.87
2017-08-03T02:33:56.978Z,18.87
2017-08-03T02:34:37.455Z,18.93
2017-08-03T02:35:18.725Z,18.93
2017-08-03T02:35:59.201Z,18.89
2017-08-03T02:36:39.754Z,18.9
2017-08-03T02:37:20.168Z,18.91
2017-08-03T02:38:00.635Z,18.99
2017-08-03T02:38:41.180Z,19.01
2017-08-03T02:39:21.641Z,19.01
2017-08-03T02:40:02.142Z,19.07
2017-08-03T02:40:42.640Z,19.05
2017-08-03T02:41:23.253Z,18.96
2017-08-03T02:42:04.104Z,19.05
2017-08-03T02:42:44.592Z,19.05
2017-08-03T02:43:25.120Z,18.99
2017-08-03T02:44:05.640Z,19.06
2017-08-03T02:44:46.184Z,19.02
2017-08-03T02:45:26.790Z,19.05
2017-08-03T02:46:07.291Z,19.01
2017-08-03T02:46:47.857Z,19.07
2017-08-03T02:47:28.247Z,19.06
2017-08-03T02:48:08.820Z,19.06
2017-08-03T02:48:49.295Z,19.06
2017-08-03T02:49:29.749Z,19.02
2017-08-03T02:50:10.268Z,19.02
2017-08-03T02:50:50.739Z,19.05
2017-08-03T02:51:31.223Z,19.1
2017-08-03T02:52:11.849Z,19.05
2017-08-03T02:52:52.266Z,19.07
2017-08-03T02:53:32.813Z,19.07
2017-08-03T02:54:13.553Z,19.1
2017-08-03T02:54:54.122Z,19.13
2017-08-03T02:55:34.616Z,19.06
2017-08-03T02:56:15.231Z,19.1
2017-08-03T02:56:55.832Z,19.06
2017-08-03T02:57:36.524Z,19.13
2017-08-03T02:58:17.129Z,19.12
2017-08-03T02:58:57.650Z,19.15
2017-08-03T02:59:38.124Z,19.07
2017-08-03T03:00:18.629Z,19.15
2017-08-03T03:00:59.004Z,19.07
2017-08-03T03:01:39.761Z,19.09
2017-08-03T03:02:20.305Z,19.12
2017-08-03T03:03:00.689Z,19.06
2017-08-03T03:03:41.255Z,19.1
2017-08-03T03:04:21.759Z,19.05
2017-08-03T03:05:02.288Z,18.99
2017-08-03T03:05:42.791Z,19.05
2017-08-03T03:06:23.382Z,18.91
2017-08-03T03:07:03.823Z,18.94
2017-08-03T03:07:44.378Z,18.96
2017-08-03T03:08:24.812Z,19.05
2017-08-03T03:09:05.386Z,18.93
2017-08-03T03:09:45.932Z,18.94
2017-08-03T03:10:26.450Z,18.89
2017-08-03T03:11:06.909Z,18.89
2017-08-03T03:11:47.467Z,18.96
2017-08-03T03:12:27.921Z,18.94
2017-08-03T03:13:08.436Z,18.99
2017-08-03T03:13:48.927Z,18.96
2017-08-03T03:14:29.574Z,18.97
2017-08-03T03:15:10.085Z,18.97
2017-08-03T03:15:50.598Z,19.02
2017-08-03T03:16:31.093Z,18.93
2017-08-03T03:17:11.646Z,18.93
2017-08-03T03:17:52.134Z,18.89
2017-08-03T03:18:32.611Z,18.9
2017-08-03T03:19:13.124Z,18.94
2017-08-03T03:19:53.591Z,18.93
2017-08-03T03:20:34.180Z,18.91
2017-08-03T03:21:14.792Z,19.02
2017-08-03T03:21:55.303Z,19.05
2017-08-03T03:22:35.814Z,19.07
2017-08-03T03:23:16.288Z,19.05
2017-08-03T03:23:56.887Z,18.99
2017-08-03T03:24:37.318Z,19.07
2017-08-03T03:25:17.803Z,19.05
2017-08-03T03:25:58.352Z,19.05
2017-08-03T03:26:38.857Z,18.99
2017-08-03T03:27:19.338Z,18.97
2017-08-03T03:27:59.886Z,18.94
2017-08-03T03:28:40.434Z,18.97
2017-08-03T03:29:20.892Z,18.9
2017-08-03T03:30:02.184Z,18.9
2017-08-03T03:30:41.914Z,18.89
2017-08-03T03:31:22.647Z,18.94
2017-08-03T03:32:03.103Z,18.79
2017-08-03T03:32:44.190Z,18.83
2017-08-03T03:33:24.658Z,18.87
2017-08-03T03:34:05.178Z,18.82
2017-08-03T03:34:45.707Z,18.87
2017-08-03T03:35:26.175Z,18.86
2017-08-03T03:36:06.688Z,18.87
2017-08-03T03:36:47.129Z,18.84
2017-08-03T03:37:27.664Z,18.79
2017-08-03T03:38:08.238Z,18.87
2017-08-03T03:38:48.773Z,18.84
2017-08-03T03:39:29.312Z,18.87
2017-08-03T03:40:09.813Z,18.89
2017-08-03T03:40:50.264Z,18.86
2017-08-03T03:41:30.808Z,18.87
2017-08-03T03:42:11.256Z,18.79
2017-08-03T03:42:51.749Z,18.89
2017-08-03T03:43:32.387Z,18.89
2017-08-03T03:44:12.945Z,18.9
2017-08-03T03:44:53.554Z,18.94
2017-08-03T03:45:34.123Z,18.87
2017-08-03T03:46:14.626Z,18.89
2017-08-03T03:46:55.124Z,18.82
2017-08-03T03:47:35.719Z,18.86
2017-08-03T03:48:16.286Z,18.89
2017-08-03T03:48:56.746Z,18.84
2017-08-03T03:49:37.186Z,18.91
2017-08-03T03:50:17.730Z,18.86
2017-08-03T03:50:58.221Z,18.91
2017-08-03T03:51:38.712Z,18.89
2017-08-03T03:52:19.173Z,18.94
2017-08-03T03:52:59.728Z,18.96
2017-08-03T03:53:40.261Z,18.89
2017-08-03T03:54:20.781Z,19.02
2017-08-03T03:55:01.281Z,19.01
2017-08-03T03:55:41.833Z,19.09
2017-08-03T03:56:22.465Z,19.05
2017-08-03T03:57:02.858Z,19.06
2017-08-03T03:57:43.695Z,19.07
2017-08-03T03:58:24.186Z,19.07
2017-08-03T03:59:04.677Z,19.06
2017-08-03T03:59:45.101Z,19.16
2017-08-03T04:00:25.542Z,19.12
2017-08-03T04:01:06.131Z,19.12
2017-08-03T04:01:46.643Z,19.15
2017-08-03T04:02:27.165Z,19.09
2017-08-03T04:03:07.810Z,19.12
2017-08-03T04:03:48.350Z,19.13
2017-08-03T04:04:28.839Z,19.05
2017-08-03T04:05:09.368Z,19.13
2017-08-03T04:05:49.790Z,19.09
2017-08-03T04:06:30.371Z,19.09
2017-08-03T04:07:10.924Z,19.1
2017-08-03T04:07:51.382Z,19.13
2017-08-03T04:08:31.907Z,19.15
2017-08-03T04:09:12.458Z,19.13
2017-08-03T04:09:52.951Z,19.12
2017-08-03T04:10:33.467Z,19.12
2017-08-03T04:11:13.938Z,19.1
2017-08-03T04:11:54.631Z,19.13
2017-08-03T04:12:35.227Z,19.07
2017-08-03T04:13:15.747Z,19.17
2017-08-03T04:13:56.305Z,19.1
2017-08-03T04:14:36.824Z,19.13
2017-08-03T04:15:17.328Z,19.09
2017-08-03T04:15:58.600Z,19.1
2017-08-03T04:16:39.969Z,19.23
2017-08-03T04:17:20.439Z,19.21
2017-08-03T04:18:00.919Z,19.25
2017-08-03T04:18:41.433Z,19.24
2017-08-03T04:19:21.863Z,19.25
2017-08-03T04:20:02.380Z,19.27
2017-08-03T04:20:42.964Z,19.31
2017-08-03T04:21:23.449Z,19.27
2017-08-03T04:22:03.998Z,19.28
2017-08-03T04:22:44.481Z,19.28
2017-08-03T04:23:25.048Z,19.35
2017-08-03T04:24:05.672Z,19.4
2017-08-03T04:24:46.221Z,19.3
2017-08-03T04:25:27.138Z,19.3
2017-08-03T04:26:07.535Z,19.34
2017-08-03T04:26:48.098Z,19.35
2017-08-03T04:27:28.512Z,19.31
2017-08-03T04:28:09.094Z,19.38
2017-08-03T04:28:49.610Z,19.27
2017-08-03T04:29:30.113Z,19.17
2017-08-03T04:30:10.669Z,19.09
2017-08-03T04:30:51.197Z,19.16
2017-08-03T04:31:31.764Z,19.16
2017-08-03T04:32:12.241Z,19.13
2017-08-03T04:32:52.956Z,19.16
2017-08-03T04:33:33.541Z,19.23
2017-08-03T04:34:13.962Z,19.17
2017-08-03T04:34:54.474Z,19.21
2017-08-03T04:35:35.024Z,19.27
2017-08-03T04:36:15.548Z,19.28
2017-08-03T04:36:56.207Z,19.27
2017-08-03T04:37:36.698Z,19.25
2017-08-03T04:38:17.326Z,19.3
2017-08-03T04:38:57.993Z,19.28
2017-08-03T04:39:38.449Z,19.31
2017-08-03T04:40:18.989Z,19.28
2017-08-03T04:40:59.670Z,19.35
2017-08-03T04:41:40.221Z,19.28
2017-08-03T04:42:20.653Z,19.25
2017-08-03T04:43:01.237Z,19.24
2017-08-03T04:43:41.704Z,19.3
2017-08-03T04:44:22.263Z,19.24
2017-08-03T04:45:02.921Z,19.23
2017-08-03T04:45:43.501Z,19.21
2017-08-03T04:46:24.302Z,19.25
2017-08-03T04:47:04.746Z,19.27
2017-08-03T04:47:45.252Z,19.25
2017-08-03T04:48:25.813Z,19.2
2017-08-03T04:49:06.310Z,19.2
2017-08-03T04:49:46.910Z,19.17
2017-08-03T04:50:27.465Z,19.1
2017-08-03T04:51:08.192Z,19.13
2017-08-03T04:51:48.761Z,19.09
2017-08-03T04:52:29.317Z,19.12
2017-08-03T04:53:09.979Z,19.15
2017-08-03T04:53:50.526Z,19.09
2017-08-03T04:54:31.104Z,19.1
2017-08-03T04:55:11.533Z,19.05
2017-08-03T04:55:52.949Z,19.07
2017-08-03T04:56:33.464Z,19.02
2017-08-03T04:57:13.893Z,18.99
2017-08-03T04:57:54.459Z,18.94
2017-08-03T04:58:35.072Z,18.94
2017-08-03T04:59:15.441Z,18.94
2017-08-03T04:59:55.967Z,19.05
2017-08-03T05:00:36.550Z,19.01
2017-08-03T05:01:17.075Z,18.99
2017-08-03T05:01:57.836Z,19.01
2017-08-03T05:02:38.224Z,19.01
2017-08-03T05:03:18.785Z,19.02
2017-08-03T05:03:59.389Z,18.93
2017-08-03T05:04:39.861Z,18.93
2017-08-03T05:05:20.613Z,18.96
2017-08-03T05:06:01.093Z,18.93
2017-08-03T05:06:41.567Z,18.89
2017-08-03T05:07:22.290Z,18.93
2017-08-03T05:08:02.861Z,18.91
2017-08-03T05:08:43.336Z,18.78
2017-08-03T05:09:24.166Z,18.87
2017-08-03T05:10:04.579Z,18.82
2017-08-03T05:10:45.708Z,18.91
2017-08-03T05:11:26.027Z,18.94
2017-08-03T05:12:06.757Z,18.86
2017-08-03T05:12:47.198Z,18.9
2017-08-03T05:13:27.739Z,18.91
2017-08-03T05:14:08.300Z,18.87
2017-08-03T05:14:49.065Z,18.83
2017-08-03T05:15:29.684Z,18.9
2017-08-03T05:16:10.232Z,18.93
2017-08-03T05:16:51.347Z,18.9
2017-08-03T05:17:31.941Z,18.89
2017-08-03T05:18:12.772Z,18.9
2017-08-03T05:18:53.136Z,18.9
2017-08-03T05:19:33.712Z,18.89
2017-08-03T05:20:14.486Z,18.86
2017-08-03T05:20:55.452Z,18.86
2017-08-03T05:21:35.972Z,18.9
2017-08-03T05:22:17.037Z,18.93
2017-08-03T05:22:58.068Z,18.93
2017-08-03T05:23:38.659Z,18.96
2017-08-03T05:24:22.135Z,18.96
2017-08-03T05:25:03.260Z,19.05
2017-08-03T05:25:44.118Z,19.05
2017-08-03T05:26:24.944Z,19.05
2017-08-03T05:27:05.666Z,19.01
2017-08-03T05:27:46.062Z,19.05
2017-08-03T05:28:26.834Z,19.06
2017-08-03T05:29:07.818Z,18.97
2017-08-03T05:29:48.053Z,19.07
2017-08-03T05:30:28.549Z,19.01
2017-08-03T05:31:09.003Z,19.05
2017-08-03T05:31:50.416Z,19.02
2017-08-03T05:32:31.035Z,19.07
2017-08-03T05:33:11.767Z,19.07
2017-08-03T05:33:52.239Z,19.1
2017-08-03T05:34:32.811Z,19.01
2017-08-03T05:35:13.304Z,19.07
2017-08-03T05:35:54.196Z,19.06
2017-08-03T05:36:34.371Z,19.09
2017-08-03T05:37:15.245Z,19.02
2017-08-03T05:37:55.613Z,19.07
2017-08-03T05:38:36.165Z,18.99
2017-08-03T05:39:16.644Z,19.02
2017-08-03T05:39:57.154Z,18.99
2017-08-03T05:40:37.678Z,19.05
2017-08-03T05:41:19.237Z,19.01
2017-08-03T05:41:59.749Z,18.99
2017-08-03T05:42:40.531Z,19.06
2017-08-03T05:43:21.075Z,19.06
2017-08-03T05:44:01.681Z,19.13
2017-08-03T05:44:42.162Z,19.1
2017-08-03T05:45:22.723Z,19.09
2017-08-03T05:46:03.272Z,19.1
2017-08-03T05:46:43.735Z,19.07
2017-08-03T05:47:24.298Z,19.13
2017-08-03T05:48:06.153Z,19.07
2017-08-03T05:48:46.402Z,18.99
2017-08-03T05:49:26.875Z,19.09
2017-08-03T05:50:07.673Z,19.09
2017-08-03T05:50:48.195Z,19.05
2017-08-03T05:51:28.718Z,19.02
2017-08-03T05:52:09.333Z,19.09
2017-08-03T05:52:50.049Z,19.07
2017-08-03T05:53:30.580Z,19.07
2017-08-03T05:54:11.012Z,19.02
2017-08-03T05:54:51.498Z,19.09
2017-08-03T05:55:32.106Z,19.12
2017-08-03T05:56:12.521Z,19.06
2017-08-03T05:56:53.093Z,19.07
2017-08-03T05:57:33.675Z,19.07
2017-08-03T05:58:14.096Z,19.12
2017-08-03T05:58:54.659Z,19.07
2017-08-03T05:59:35.078Z,19.1
2017-08-03T06:00:15.969Z,19.09
2017-08-03T06:00:56.696Z,19.13
2017-08-03T06:01:37.106Z,19.07
2017-08-03T06:02:17.640Z,19.12
2017-08-03T06:02:58.228Z,19.13
2017-08-03T06:03:38.834Z,19.16
2017-08-03T06:04:19.290Z,19.3
2017-08-03T06:04:59.903Z,19.28
2017-08-03T06:05:40.418Z,19.28
2017-08-03T06:06:21.730Z,19.45
2017-08-03T06:07:01.519Z,19.4
2017-08-03T06:07:41.954Z,19.46
2017-08-03T06:08:22.516Z,19.49
2017-08-03T06:09:02.944Z,19.43
2017-08-03T06:09:43.536Z,19.57
2017-08-03T06:10:24.029Z,19.47
2017-08-03T06:11:05.430Z,19.58
2017-08-03T06:11:46.050Z,19.53
2017-08-03T06:12:26.370Z,19.61
2017-08-03T06:13:06.873Z,19.57
2017-08-03T06:13:47.664Z,19.61
2017-08-03T06:14:28.077Z,19.62
2017-08-03T06:15:08.583Z,19.64
2017-08-03T06:15:49.132Z,19.7
2017-08-03T06:16:29.802Z,19.61
2017-08-03T06:17:11.049Z,19.6
2017-08-03T06:17:51.538Z,19.58
2017-08-03T06:18:32.101Z,19.61
2017-08-03T06:19:12.559Z,19.57
2017-08-03T06:19:53.109Z,19.62
2017-08-03T06:20:34.212Z,19.61
2017-08-03T06:21:14.713Z,19.55
2017-08-03T06:21:55.193Z,19.6
2017-08-03T06:22:35.776Z,19.58
2017-08-03T06:23:16.298Z,19.55
2017-08-03T06:23:56.883Z,19.61
2017-08-03T06:24:37.426Z,19.64
2017-08-03T06:25:17.976Z,19.75
2017-08-03T06:25:58.509Z,19.82
2017-08-03T06:26:39.104Z,19.78
2017-08-03T06:27:19.769Z,19.82
2017-08-03T06:28:00.331Z,19.86
2017-08-03T06:28:40.926Z,19.94
2017-08-03T06:29:21.418Z,20.08
2017-08-03T06:30:01.978Z,20.15
2017-08-03T06:30:42.815Z,20.16
2017-08-03T06:31:23.203Z,20.23
2017-08-03T06:32:04.434Z,20.33
2017-08-03T06:32:44.937Z,20.46
2017-08-03T06:33:25.504Z,20.37
2017-08-03T06:34:06.084Z,20.46
2017-08-03T06:34:46.567Z,20.48
2017-08-03T06:35:27.087Z,20.51
2017-08-03T06:36:07.796Z,20.51
2017-08-03T06:36:48.606Z,20.61
2017-08-03T06:37:29.180Z,20.58
2017-08-03T06:38:09.751Z,20.68
2017-08-03T06:38:50.456Z,20.64
2017-08-03T06:39:31.063Z,20.63
2017-08-03T06:40:11.839Z,20.58
2017-08-03T06:40:52.585Z,20.61
2017-08-03T06:41:32.934Z,20.63
2017-08-03T06:42:13.679Z,20.68
2017-08-03T06:42:54.132Z,20.61
2017-08-03T06:43:34.696Z,20.71
2017-08-03T06:44:15.237Z,20.68
2017-08-03T06:44:55.794Z,20.6
2017-08-03T06:45:36.337Z,20.53
2017-08-03T06:46:16.777Z,20.54
2017-08-03T06:46:57.356Z,20.5
2017-08-03T06:47:38.106Z,20.41
2017-08-03T06:48:18.472Z,20.42
2017-08-03T06:48:59.919Z,20.46
2017-08-03T06:49:40.707Z,20.5
2017-08-03T06:50:21.153Z,20.48
2017-08-03T06:51:01.751Z,20.58
2017-08-03T06:51:42.268Z,20.48
2017-08-03T06:52:22.917Z,20.46
2017-08-03T06:53:03.495Z,20.46
2017-08-03T06:53:44.570Z,20.41
2017-08-03T06:54:25.339Z,20.53
2017-08-03T06:55:05.897Z,20.54
2017-08-03T06:55:47.152Z,20.46
2017-08-03T06:56:27.421Z,20.6
2017-08-03T06:57:07.966Z,20.68
2017-08-03T06:57:48.744Z,20.76
2017-08-03T06:58:29.370Z,20.78
2017-08-03T06:59:09.963Z,20.75
2017-08-03T06:59:50.850Z,20.71
2017-08-03T07:00:31.646Z,20.71
2017-08-03T07:01:12.631Z,20.68
2017-08-03T07:01:54.087Z,20.63
2017-08-03T07:02:35.923Z,20.71
2017-08-03T07:03:16.114Z,20.63
2017-08-03T07:03:56.972Z,20.66
2017-08-03T07:04:37.423Z,20.69
2017-08-03T07:05:17.962Z,20.69
2017-08-03T07:05:58.393Z,20.63
2017-08-03T07:06:39.038Z,20.64
2017-08-03T07:07:19.564Z,20.71
2017-08-03T07:08:00.285Z,20.61
2017-08-03T07:08:40.948Z,20.6
2017-08-03T07:09:21.493Z,20.61
2017-08-03T07:10:02.192Z,20.68
2017-08-03T07:10:42.682Z,20.69
2017-08-03T07:11:24.982Z,20.75
2017-08-03T07:12:08.296Z,20.83
2017-08-03T07:12:52.667Z,20.85
2017-08-03T07:13:36.087Z,20.91
2017-08-03T07:14:20.522Z,20.98
2017-08-03T07:15:04.554Z,21.03
2017-08-03T07:15:46.597Z,21.11
2017-08-03T07:16:26.919Z,21.05
2017-08-03T07:17:08.696Z,21.13
2017-08-03T07:17:50.500Z,21.01
2017-08-03T07:18:34.501Z,21.13
2017-08-03T07:19:16.000Z,21.15
2017-08-03T07:20:01.247Z,21.19
2017-08-03T07:20:47.294Z,21.3
2017-08-03T07:21:32.851Z,21.22
2017-08-03T07:22:15.509Z,21.3
2017-08-03T07:22:56.995Z,21.21
2017-08-03T07:23:38.755Z,21.27
2017-08-03T07:24:20.936Z,21.27
2017-08-03T07:25:02.476Z,21.21
2017-08-03T07:25:44.549Z,21.33
2017-08-03T07:26:25.573Z,21.34
2017-08-03T07:27:08.085Z,21.28
2017-08-03T07:27:50.228Z,21.21
2017-08-03T07:28:32.883Z,21.3
2017-08-03T07:29:17.022Z,21.22
2017-08-03T07:30:00.859Z,21.19
2017-08-03T07:30:41.780Z,21.3
2017-08-03T07:31:22.777Z,21.22
2017-08-03T07:32:04.571Z,21.37
2017-08-03T07:32:44.773Z,21.34
2017-08-03T07:33:25.411Z,21.48
2017-08-03T07:34:05.996Z,21.55
2017-08-03T07:34:47.025Z,21.59
2017-08-03T07:35:27.760Z,21.67
2017-08-03T07:36:08.592Z,21.77
2017-08-03T07:36:50.156Z,21.83
2017-08-03T07:37:31.276Z,21.86
2017-08-03T07:38:12.392Z,21.96
2017-08-03T07:38:54.425Z,21.99
2017-08-03T07:39:37.999Z,22.04
2017-08-03T07:40:20.979Z,21.99
2017-08-03T07:41:01.422Z,22.02
2017-08-03T07:41:42.172Z,22.04
2017-08-03T07:42:24.768Z,22.05
2017-08-03T07:43:08.285Z,22.15
2017-08-03T07:43:49.759Z,22.11
2017-08-03T07:44:31.446Z,22.12
2017-08-03T07:45:13.206Z,22.15
2017-08-03T07:45:56.863Z,22.15
2017-08-03T07:46:39.708Z,22.17
2017-08-03T07:47:23.177Z,22.06
2017-08-03T07:48:04.971Z,22.15
2017-08-03T07:48:46.203Z,22.15
2017-08-03T07:49:26.636Z,22.04
2017-08-03T07:50:08.007Z,22.14
2017-08-03T07:50:48.648Z,22.14
2017-08-03T07:51:30.046Z,22.04
2017-08-03T07:52:11.417Z,21.94
2017-08-03T07:52:52.699Z,21.98
2017-08-03T07:53:33.601Z,22.02
2017-08-03T07:54:14.344Z,22.02
2017-08-03T07:54:55.059Z,21.94
2017-08-03T07:55:35.614Z,22.05
2017-08-03T07:56:16.373Z,22.09
2017-08-03T07:56:57.824Z,22.23
2017-08-03T07:57:38.657Z,22.36
2017-08-03T07:58:20.907Z,22.38
2017-08-03T08:01:12.075Z,22.59
2017-08-03T08:02:11.222Z,22.61
2017-08-03T08:03:07.621Z,22.61
2017-08-03T08:04:07.993Z,22.6
2017-08-03T08:05:02.971Z,22.7
2017-08-03T08:05:59.481Z,22.85
2017-08-03T08:06:57.273Z,22.91
2017-08-03T08:07:53.351Z,23.07
2017-08-03T08:08:52.919Z,23.11
2017-08-03T08:09:46.892Z,23.26
2017-08-03T08:10:48.145Z,23.44
2017-08-03T08:11:47.514Z,23.53
2017-08-03T08:12:46.551Z,23.57
2017-08-03T08:13:43.790Z,23.64
2017-08-03T08:14:40.194Z,23.79
2017-08-03T08:15:38.105Z,23.87
2017-08-03T08:16:36.213Z,24
2017-08-03T08:17:37.086Z,24.08
2017-08-03T08:18:37.041Z,24.23
2017-08-03T08:19:35.488Z,24.39
2017-08-03T08:20:25.838Z,24.44
2017-08-03T08:21:06.894Z,24.44
2017-08-03T08:21:48.391Z,24.36
2017-08-03T08:22:28.758Z,24.39
2017-08-03T08:23:09.148Z,24.37
2017-08-03T08:23:49.557Z,24.37
2017-08-03T08:24:30.020Z,24.29
2017-08-03T08:25:10.445Z,24.3
2017-08-03T08:25:50.838Z,24.23
2017-08-03T08:26:31.272Z,24.18
2017-08-03T08:27:11.729Z,24.21
2017-08-03T08:27:52.143Z,24.12
2017-08-03T08:28:32.526Z,24.12
2017-08-03T08:29:13.025Z,23.9
2017-08-03T08:29:53.394Z,23.84
2017-08-03T08:30:33.769Z,23.81
2017-08-03T08:31:14.185Z,23.82
2017-08-03T08:31:54.561Z,23.77
2017-08-03T08:32:34.962Z,23.75
2017-08-03T08:33:15.383Z,23.78
2017-08-03T08:33:55.968Z,23.82
2017-08-03T08:34:36.344Z,23.9
2017-08-03T08:35:16.778Z,23.87
2017-08-03T08:40:03.988Z,24.21
2017-08-03T08:40:44.512Z,24.26
2017-08-03T08:41:25.132Z,24.24
2017-08-03T08:42:05.745Z,24.19
2017-08-03T08:44:07.661Z,24.15
2017-08-03T08:44:48.353Z,24.09
2017-08-03T08:45:28.870Z,24.15
2017-08-03T08:46:09.903Z,24.09
2017-08-03T08:53:00.834Z,23.86
2017-08-03T08:53:41.090Z,23.87
2017-08-03T08:54:22.097Z,23.64
2017-08-03T08:55:02.238Z,23.68
2017-08-03T08:55:43.175Z,23.63
2017-08-03T08:56:23.288Z,23.54
2017-08-03T08:57:04.646Z,23.63
2017-08-03T08:57:44.922Z,23.67
2017-08-03T08:58:25.399Z,23.71
2017-08-03T08:59:05.911Z,23.56
2017-08-03T08:59:46.239Z,23.49
2017-08-03T09:04:46.142Z,23.39
2017-08-03T09:05:34.229Z,23.52
2017-08-03T09:06:20.769Z,23.41
2017-08-03T09:07:01.976Z,23.47
2017-08-03T09:07:42.764Z,23.44
2017-08-03T09:08:23.468Z,23.34
2017-08-03T09:09:04.550Z,23.34
2017-08-03T09:09:45.288Z,23.26